createdAt,value
2024-02-12T00:00:48.594Z,98697.91
2024-02-12T00:03:18.814Z,98697.22
2024-02-12T00:05:48.164Z,98707.63
2024-02-12T00:08:16.813Z,98691.19
2024-02-12T00:10:44.535Z,98689.59
2024-02-12T00:13:12.097Z,98708.00
2024-02-12T00:15:41.065Z,98701.91
2024-02-12T00:18:08.464Z,98719.50
2024-02-12T00:20:35.927Z,98722.16
2024-02-12T00:23:05.995Z,98710.84
2024-02-12T00:25:34.633Z,98724.00
2024-02-12T00:28:01.925Z,98719.09
2024-02-12T00:30:31.226Z,98732.19
2024-02-12T00:32:58.399Z,98728.81
2024-02-12T00:35:27.261Z,98732.25
2024-02-12T00:37:56.803Z,98740.22
2024-02-12T00:40:23.978Z,98736.75
2024-02-12T00:42:51.359Z,98741.16
2024-02-12T00:45:19.113Z,98732.50
2024-02-12T00:47:46.652Z,98728.19
2024-02-12T00:50:16.520Z,98739.75
2024-02-12T00:52:44.000Z,98743.16
2024-02-12T00:55:16.469Z,98734.72
2024-02-12T00:57:44.716Z,98738.91
2024-02-12T01:00:15.788Z,98731.06
2024-02-12T01:02:44.056Z,98736.37
2024-02-12T01:05:11.819Z,98732.06
2024-02-12T01:07:42.756Z,98740.78
2024-02-12T01:10:10.808Z,98727.56
2024-02-12T01:12:39.351Z,98723.31
2024-02-12T01:15:07.400Z,98731.97
2024-02-12T01:17:34.790Z,98729.28
2024-02-12T01:20:02.232Z,98734.63
2024-02-12T01:22:29.426Z,98736.53
2024-02-12T01:24:59.913Z,98740.00
2024-02-12T01:27:27.197Z,98726.03
2024-02-12T01:29:54.462Z,98732.16
2024-02-12T01:32:21.821Z,98734.81
2024-02-12T01:34:49.018Z,98732.28
2024-02-12T01:37:17.455Z,98745.56
2024-02-12T01:39:44.549Z,98735.00
2024-02-12T01:42:15.086Z,98736.75
2024-02-12T01:44:58.564Z,98729.94
2024-02-12T01:47:26.124Z,98733.56
2024-02-12T01:49:56.970Z,98732.78
2024-02-12T01:52:24.470Z,98724.16
2024-02-12T01:54:53.560Z,98738.00
2024-02-12T01:57:20.866Z,98738.06
2024-02-12T01:59:48.258Z,98732.12
2024-02-12T02:02:16.185Z,98727.84
2024-02-12T02:04:43.908Z,98732.03
2024-02-12T02:07:23.243Z,98725.28
2024-02-12T02:09:51.910Z,98733.84
2024-02-12T02:12:19.411Z,98730.56
2024-02-12T02:14:47.081Z,98732.38
2024-02-12T02:17:15.237Z,98735.09
2024-02-12T02:19:43.666Z,98735.97
2024-02-12T02:22:10.890Z,98736.78
2024-02-12T02:24:40.156Z,98734.06
2024-02-12T02:27:08.360Z,98735.87
2024-02-12T02:29:35.784Z,98729.16
2024-02-12T02:32:02.990Z,98743.94
2024-02-12T02:34:30.352Z,98737.88
2024-02-12T02:36:57.896Z,98734.56
2024-02-12T02:39:25.156Z,98744.75
2024-02-12T02:41:53.273Z,98740.28
2024-02-12T02:44:20.428Z,98742.97
2024-02-12T02:46:48.217Z,98735.16
2024-02-12T02:49:15.978Z,98744.75
2024-02-12T02:51:43.765Z,98738.75
2024-02-12T02:54:11.232Z,98735.09
2024-02-12T02:56:38.445Z,98742.06
2024-02-12T02:59:06.232Z,98744.84
2024-02-12T03:01:34.605Z,98744.69
2024-02-12T03:04:03.296Z,98736.19
2024-02-12T03:06:30.678Z,98735.16
2024-02-12T03:08:57.837Z,98742.16
2024-02-12T03:11:25.646Z,98748.09
2024-02-12T03:13:53.397Z,98747.19
2024-02-12T03:16:20.714Z,98749.72
2024-02-12T03:18:47.890Z,98757.69
2024-02-12T03:21:21.383Z,98745.66
2024-02-12T03:23:49.377Z,98757.03
2024-02-12T03:26:17.353Z,98762.34
2024-02-12T03:28:45.301Z,98754.47
2024-02-12T03:31:13.101Z,98757.94
2024-02-12T03:33:43.457Z,98763.16
2024-02-12T03:36:12.832Z,98746.72
2024-02-12T03:38:40.192Z,98764.03
2024-02-12T03:41:07.366Z,98772.69
2024-02-12T03:43:37.314Z,98766.47
2024-02-12T03:46:05.349Z,98767.50
2024-02-12T03:48:51.449Z,98766.59
2024-02-12T03:51:37.146Z,98770.91
2024-02-12T03:54:22.824Z,98779.69
2024-02-12T03:57:08.417Z,98764.03
2024-02-12T03:59:54.562Z,98776.25
2024-02-12T04:02:23.560Z,98765.72
2024-02-12T04:04:51.704Z,98779.56
2024-02-12T04:07:20.193Z,98771.75
2024-02-12T04:09:47.556Z,98778.84
2024-02-12T04:12:14.605Z,98771.00
2024-02-12T04:14:45.640Z,98778.91
2024-02-12T04:17:16.945Z,98781.37
2024-02-12T04:19:44.660Z,98784.88
2024-02-12T04:22:12.060Z,98781.31
2024-02-12T04:24:43.360Z,98777.97
2024-02-12T04:27:11.810Z,98784.94
2024-02-12T04:29:41.546Z,98774.50
2024-02-12T04:32:13.836Z,98791.00
2024-02-12T04:34:42.494Z,98782.31
2024-02-12T04:37:12.229Z,98778.16
2024-02-12T04:39:39.897Z,98782.41
2024-02-12T04:42:07.480Z,98776.63
2024-02-12T04:44:34.717Z,98786.19
2024-02-12T04:47:05.492Z,98770.56
2024-02-12T04:49:33.634Z,98783.44
2024-02-12T04:52:00.948Z,98781.87
2024-02-12T04:54:28.077Z,98784.66
2024-02-12T04:56:55.107Z,98786.31
2024-02-12T04:59:23.018Z,98769.72
2024-02-12T05:01:50.120Z,98770.69
2024-02-12T05:04:19.120Z,98780.25
2024-02-12T05:06:47.151Z,98772.47
2024-02-12T05:09:14.616Z,98777.59
2024-02-12T05:11:42.028Z,98774.87
2024-02-12T05:14:09.253Z,98782.88
2024-02-12T05:16:36.599Z,98774.97
2024-02-12T05:19:23.627Z,98780.94
2024-02-12T05:22:09.601Z,98774.97
2024-02-12T05:24:37.041Z,98788.06
2024-02-12T05:27:04.862Z,98791.56
2024-02-12T05:29:32.576Z,98788.84
2024-02-12T05:32:00.344Z,98792.25
2024-02-12T05:34:27.659Z,98794.09
2024-02-12T05:36:55.237Z,98785.44
2024-02-12T05:39:23.132Z,98799.31
2024-02-12T05:41:50.768Z,98791.50
2024-02-12T05:44:18.641Z,98788.94
2024-02-12T05:46:45.927Z,98801.19
2024-02-12T05:49:15.940Z,98793.44
2024-02-12T05:51:44.775Z,98802.19
2024-02-12T05:54:12.208Z,98794.38
2024-02-12T05:56:41.832Z,98807.28
2024-02-12T05:59:12.919Z,98807.53
2024-02-12T06:01:41.558Z,98816.19
2024-02-12T06:04:10.051Z,98803.22
2024-02-12T06:06:41.263Z,98816.19
2024-02-12T06:09:09.305Z,98816.25
2024-02-12T06:11:36.747Z,98819.81
2024-02-12T06:14:03.997Z,98824.31
2024-02-12T06:16:30.903Z,98819.81
2024-02-12T06:18:58.403Z,98808.50
2024-02-12T06:21:25.552Z,98827.72
2024-02-12T06:23:53.649Z,98829.56
2024-02-12T06:26:22.318Z,98820.13
2024-02-12T06:28:51.741Z,98820.81
2024-02-12T06:31:19.506Z,98840.84
2024-02-12T06:33:47.001Z,98834.75
2024-02-12T06:36:14.506Z,98832.69
2024-02-12T06:38:42.088Z,98834.53
2024-02-12T06:41:09.895Z,98833.78
2024-02-12T06:43:37.199Z,98840.56
2024-02-12T06:46:04.614Z,98843.25
2024-02-12T06:48:31.674Z,98840.38
2024-02-12T06:51:01.708Z,98842.97
2024-02-12T06:53:30.220Z,98848.25
2024-02-12T06:55:57.746Z,98851.59
2024-02-12T06:58:24.757Z,98851.50
2024-02-12T07:00:55.592Z,98843.78
2024-02-12T07:03:23.493Z,98856.69
2024-02-12T07:05:51.969Z,98857.41
2024-02-12T07:08:21.075Z,98852.97
2024-02-12T07:10:49.872Z,98855.50
2024-02-12T07:13:17.530Z,98863.25
2024-02-12T07:15:45.030Z,98859.63
2024-02-12T07:18:12.536Z,98859.56
2024-02-12T07:20:41.372Z,98859.38
2024-02-12T07:23:09.194Z,98874.00
2024-02-12T07:25:37.018Z,98863.28
2024-02-12T07:28:06.064Z,98882.34
2024-02-12T07:30:33.201Z,98876.06
2024-02-12T07:33:01.500Z,98873.34
2024-02-12T07:35:30.665Z,98871.47
2024-02-12T07:38:00.158Z,98882.69
2024-02-12T07:40:27.389Z,98880.75
2024-02-12T07:42:54.736Z,98880.75
2024-02-12T07:45:22.199Z,98873.63
2024-02-12T07:47:49.872Z,98882.28
2024-02-12T07:50:17.079Z,98877.22
2024-02-12T07:52:44.422Z,98891.75
2024-02-12T07:55:15.404Z,98891.56
2024-02-12T07:57:45.181Z,98888.19
2024-02-12T08:00:16.280Z,98889.59
2024-02-12T08:02:47.053Z,98900.78
2024-02-12T08:05:16.790Z,98885.84
2024-02-12T08:07:56.641Z,98896.25
2024-02-12T08:13:18.489Z,98906.41
2024-02-12T08:15:50.571Z,98902.84
2024-02-12T08:18:22.859Z,98898.41
2024-02-12T08:21:23.276Z,98890.56
2024-02-12T08:24:16.032Z,98915.44
2024-02-12T08:27:11.296Z,98918.81
2024-02-12T08:29:38.572Z,98919.59
2024-02-12T08:32:33.642Z,98923.81
2024-02-12T08:35:15.045Z,98921.81
2024-02-12T08:37:55.019Z,98891.81
2024-02-12T08:40:30.640Z,98926.22
2024-02-12T08:46:39.672Z,98900.00
2024-02-12T08:49:17.731Z,98921.66
2024-02-12T08:52:03.739Z,98934.37
2024-02-12T08:54:32.670Z,98930.16
2024-02-12T08:57:04.416Z,98904.94
2024-02-12T08:59:43.584Z,98936.84
2024-02-12T09:02:15.921Z,98912.59
2024-02-12T09:04:43.948Z,98911.47
2024-02-12T09:07:15.046Z,98903.97
2024-02-12T09:09:47.275Z,98938.72
2024-02-12T09:12:14.854Z,98904.84
2024-02-12T09:17:53.091Z,98948.81
2024-02-12T09:25:02.750Z,98946.53
2024-02-12T09:27:18.296Z,98970.63
2024-02-12T09:30:13.600Z,98962.50
2024-02-12T09:33:40.622Z,98927.66
2024-02-12T09:39:26.111Z,98957.63
2024-02-12T09:42:02.605Z,98924.78
2024-02-12T09:45:29.995Z,98949.37
2024-02-12T09:48:35.322Z,98873.72
2024-02-12T09:52:06.096Z,98912.78
2024-02-12T09:54:35.687Z,98974.44
2024-02-12T09:57:03.101Z,98971.69
2024-02-12T09:59:30.609Z,98981.53
2024-02-12T10:01:58.830Z,98975.84
2024-02-12T10:04:27.185Z,98962.16
2024-02-12T10:06:55.817Z,98964.94
2024-02-12T10:09:23.719Z,98967.34
2024-02-12T10:11:51.355Z,98975.50
2024-02-12T10:14:32.297Z,98976.97
2024-02-12T10:17:02.210Z,98970.50
2024-02-12T10:19:29.959Z,98964.47
2024-02-12T10:21:59.646Z,98965.75
2024-02-12T10:24:28.405Z,98958.19
2024-02-12T10:26:56.203Z,98969.59
2024-02-12T10:29:23.875Z,98956.75
2024-02-12T10:31:51.585Z,98974.94
2024-02-12T10:34:22.852Z,98973.47
2024-02-12T10:36:56.214Z,98975.19
2024-02-12T10:39:23.452Z,98954.41
2024-02-12T10:41:57.228Z,98973.06
2024-02-12T10:44:25.192Z,98970.94
2024-02-12T10:46:53.397Z,98977.53
2024-02-12T10:49:21.042Z,98977.25
2024-02-12T10:51:55.222Z,98979.69
2024-02-12T10:54:25.319Z,98977.09
2024-02-12T10:56:53.354Z,98971.47
2024-02-12T10:59:20.708Z,98963.97
2024-02-12T11:01:50.792Z,98976.75
2024-02-12T11:04:18.580Z,98970.19
2024-02-12T11:06:49.049Z,98961.00
2024-02-12T11:09:17.183Z,98956.84
2024-02-12T11:11:48.207Z,98947.53
2024-02-12T11:14:17.624Z,98946.19
2024-02-12T11:16:45.468Z,98955.81
2024-02-12T11:19:20.643Z,98946.12
2024-02-12T11:21:55.355Z,98953.16
2024-02-12T11:24:23.115Z,98947.06
2024-02-12T11:26:51.346Z,98949.44
2024-02-12T11:29:20.323Z,98940.31
2024-02-12T11:31:51.980Z,98954.69
2024-02-12T11:34:21.390Z,98935.59
2024-02-12T11:37:01.547Z,98938.41
2024-02-12T11:39:30.384Z,98937.44
2024-02-12T11:42:01.630Z,98934.00
2024-02-12T11:44:29.716Z,98932.88
2024-02-12T11:46:57.811Z,98939.66
2024-02-12T11:49:25.548Z,98938.16
2024-02-12T11:51:53.417Z,98938.69
2024-02-12T11:54:21.296Z,98944.03
2024-02-12T11:56:48.516Z,98937.53
2024-02-12T11:59:16.215Z,98931.81
2024-02-12T12:01:43.596Z,98937.69
2024-02-12T12:04:14.673Z,98947.94
2024-02-12T12:06:42.386Z,98931.44
2024-02-12T12:09:14.242Z,98943.53
2024-02-12T12:11:45.448Z,98942.66
2024-02-12T12:14:13.114Z,98938.00
2024-02-12T12:17:27.071Z,98925.22
2024-02-12T12:19:29.354Z,98938.66
2024-02-12T12:21:57.066Z,98928.16
2024-02-12T12:24:24.319Z,98942.75
2024-02-12T12:26:51.583Z,98940.31
2024-02-12T12:29:27.843Z,98927.88
2024-02-12T12:31:56.150Z,98936.94
2024-02-12T12:34:23.777Z,98930.62
2024-02-12T12:36:51.258Z,98920.72
2024-02-12T12:39:21.709Z,98918.34
2024-02-12T12:41:48.991Z,98931.75
2024-02-12T12:44:16.301Z,98923.78
2024-02-12T12:46:43.838Z,98929.59
2024-02-12T12:49:15.370Z,98937.78
2024-02-12T12:51:44.316Z,98921.94
2024-02-12T12:54:13.017Z,98924.38
2024-02-12T12:56:40.138Z,98925.94
2024-02-12T12:59:07.340Z,98930.03
2024-02-12T13:01:35.045Z,98924.38
2024-02-12T13:04:03.854Z,98915.44
2024-02-12T13:06:31.778Z,98929.59
2024-02-12T13:08:59.907Z,98930.72
2024-02-12T13:11:30.075Z,98930.31
2024-02-12T13:13:57.131Z,98938.12
2024-02-12T13:16:26.321Z,98933.75
2024-02-12T13:18:54.494Z,98930.31
2024-02-12T13:21:21.846Z,98939.06
2024-02-12T13:23:49.517Z,98942.72
2024-02-12T13:26:18.370Z,98952.00
2024-02-12T13:28:45.894Z,98953.00
2024-02-12T13:31:18.264Z,98944.53
2024-02-12T13:33:45.504Z,98940.16
2024-02-12T13:36:14.126Z,98956.59
2024-02-12T13:38:44.338Z,98948.03
2024-02-12T13:41:12.715Z,98949.03
2024-02-12T13:43:40.128Z,98959.38
2024-02-12T13:46:08.941Z,98950.59
2024-02-12T13:48:36.170Z,98960.84
2024-02-12T13:51:03.755Z,98949.50
2024-02-12T13:53:31.155Z,98953.16
2024-02-12T13:55:58.479Z,98959.69
2024-02-12T13:58:25.643Z,98965.37
2024-02-12T14:03:24.237Z,98967.41
2024-02-12T14:05:53.203Z,98951.41
2024-02-12T14:08:20.457Z,98960.41
2024-02-12T14:10:49.987Z,98968.53
2024-02-12T14:13:18.019Z,98981.03
2024-02-12T14:16:04.657Z,98980.34
2024-02-12T14:18:32.582Z,98981.28
2024-02-12T14:21:00.459Z,98994.09
2024-02-12T14:23:28.240Z,98989.66
2024-02-12T14:25:55.493Z,98997.94
2024-02-12T14:28:22.555Z,98987.13
2024-02-12T14:30:50.542Z,98996.81
2024-02-12T14:33:18.082Z,98995.41
2024-02-12T14:35:50.667Z,99005.28
2024-02-12T14:38:19.308Z,99001.06
2024-02-12T14:40:47.362Z,99010.19
2024-02-12T14:43:16.941Z,99005.13
2024-02-12T14:45:45.309Z,99014.81
2024-02-12T14:48:15.034Z,99019.97
2024-02-12T14:50:43.389Z,99016.66
2024-02-12T14:53:10.802Z,99008.22
2024-02-12T14:55:38.995Z,99014.53
2024-02-12T14:58:06.789Z,99019.75
2024-02-12T15:00:33.961Z,99022.59
2024-02-12T15:03:01.313Z,99017.78
2024-02-12T15:05:30.160Z,99016.03
2024-02-12T15:08:00.832Z,99028.13
2024-02-12T15:10:27.935Z,99035.22
2024-02-12T15:13:01.957Z,99030.91
2024-02-12T15:15:30.016Z,99029.44
2024-02-12T15:17:59.979Z,99040.84
2024-02-12T15:20:35.124Z,99040.16
2024-02-12T15:23:03.292Z,99047.38
2024-02-12T15:25:33.554Z,99050.19
2024-02-12T15:28:03.216Z,99043.38
2024-02-12T15:30:31.554Z,99039.16
2024-02-12T15:32:59.315Z,99051.66
2024-02-12T15:35:27.385Z,99044.94
2024-02-12T15:37:57.495Z,99052.16
2024-02-12T15:40:25.194Z,99054.81
2024-02-12T15:42:55.419Z,99053.22
2024-02-12T15:45:24.718Z,99060.28
2024-02-12T15:47:58.718Z,99053.47
2024-02-12T15:50:27.997Z,99062.47
2024-02-12T15:52:55.964Z,99063.50
2024-02-12T15:55:24.688Z,99062.69
2024-02-12T15:57:52.185Z,99069.75
2024-02-12T16:00:27.954Z,99077.56
2024-02-12T16:02:57.740Z,99087.25
2024-02-12T16:06:07.934Z,99089.72
2024-02-12T16:08:38.428Z,99085.53
2024-02-12T16:11:06.976Z,99095.19
2024-02-12T16:13:34.508Z,99096.88
2024-02-12T16:16:04.931Z,99108.19
2024-02-12T16:18:33.196Z,99105.59
2024-02-12T16:21:02.979Z,99107.38
2024-02-12T16:23:30.892Z,99105.81
2024-02-12T16:25:58.886Z,99110.31
2024-02-12T16:28:26.896Z,99113.94
2024-02-12T16:30:55.611Z,99121.22
2024-02-12T16:33:23.254Z,99120.41
2024-02-12T16:35:54.798Z,99127.34
2024-02-12T16:38:22.445Z,99136.19
2024-02-12T16:40:50.214Z,99137.16
2024-02-12T16:43:17.312Z,99141.53
2024-02-12T16:45:44.741Z,99141.59
2024-02-12T16:48:13.590Z,99135.66
2024-02-12T16:50:41.568Z,99148.72
2024-02-12T16:53:10.642Z,99138.13
2024-02-12T16:55:41.591Z,99153.06
2024-02-12T16:58:09.482Z,99151.34
2024-02-12T17:00:38.294Z,99159.31
2024-02-12T17:03:06.056Z,99152.28
2024-02-12T17:05:34.417Z,99161.09
2024-02-12T17:08:07.356Z,99169.13
2024-02-12T17:10:37.288Z,99164.69
2024-02-12T17:13:06.129Z,99163.22
2024-02-12T17:15:37.775Z,99173.41
2024-02-12T17:18:10.414Z,99171.00
2024-02-12T17:20:38.728Z,99180.72
2024-02-12T17:23:06.781Z,99163.97
2024-02-12T17:25:33.840Z,99178.34
2024-02-12T17:28:00.949Z,99187.88
2024-02-12T17:30:30.101Z,99178.31
2024-02-12T17:32:58.367Z,99190.63
2024-02-12T17:35:27.174Z,99194.22
2024-02-12T17:37:54.635Z,99199.38
2024-02-12T17:40:21.944Z,99189.09
2024-02-12T17:42:49.761Z,99192.56
2024-02-12T17:45:17.106Z,99182.97
2024-02-12T17:47:46.780Z,99190.03
2024-02-12T17:50:14.615Z,99196.88
2024-02-12T17:52:44.257Z,99196.13
2024-02-12T17:55:11.686Z,99202.41
2024-02-12T17:57:38.701Z,99200.47
2024-02-12T18:00:13.307Z,99207.56
2024-02-12T18:02:41.566Z,99190.97
2024-02-12T18:05:11.582Z,99195.56
2024-02-12T18:07:39.654Z,99193.63
2024-02-12T18:10:08.644Z,99201.63
2024-02-12T18:12:39.419Z,99201.72
2024-02-12T18:15:06.962Z,99199.97
2024-02-12T18:17:34.668Z,99198.31
2024-02-12T18:20:02.383Z,99205.91
2024-02-12T18:22:29.757Z,99195.66
2024-02-12T18:24:57.421Z,99206.19
2024-02-12T18:27:24.739Z,99210.78
2024-02-12T18:29:52.253Z,99211.69
2024-02-12T18:32:19.275Z,99211.62
2024-02-12T18:34:46.385Z,99208.37
2024-02-12T18:37:17.364Z,99207.69
2024-02-12T18:39:45.861Z,99220.94
2024-02-12T18:42:13.994Z,99232.31
2024-02-12T18:44:43.982Z,99227.22
2024-02-12T18:47:13.390Z,99225.69
2024-02-12T18:49:40.939Z,99238.66
2024-02-12T18:52:08.402Z,99234.41
2024-02-12T18:54:35.768Z,99230.13
2024-02-12T18:57:03.502Z,99235.19
2024-02-12T18:59:30.948Z,99242.31
2024-02-12T19:01:58.269Z,99244.78
2024-02-12T19:04:25.462Z,99244.59
2024-02-12T19:06:52.967Z,99260.28
2024-02-12T19:09:20.502Z,99250.94
2024-02-12T19:11:48.302Z,99250.16
2024-02-12T19:14:16.002Z,99263.19
2024-02-12T19:16:43.077Z,99269.25
2024-02-12T19:19:11.162Z,99276.31
2024-02-12T19:21:41.521Z,99268.72
2024-02-12T19:24:09.977Z,99280.03
2024-02-12T19:26:38.171Z,99284.56
2024-02-12T19:29:06.704Z,99293.44
2024-02-12T19:31:35.493Z,99288.25
2024-02-12T19:34:02.995Z,99291.84
2024-02-12T19:36:30.108Z,99285.97
2024-02-12T19:38:57.123Z,99299.13
2024-02-12T19:41:26.475Z,99296.53
2024-02-12T19:43:53.897Z,99288.78
2024-02-12T19:46:21.226Z,99299.19
2024-02-12T19:48:51.466Z,99305.34
2024-02-12T19:51:19.321Z,99290.41
2024-02-12T19:53:47.298Z,99304.41
2024-02-12T19:56:14.467Z,99303.53
2024-02-12T19:58:43.448Z,99296.56
2024-02-12T20:01:10.989Z,99311.41
2024-02-12T20:03:38.421Z,99300.97
2024-02-12T20:06:07.881Z,99305.25
2024-02-12T20:08:35.845Z,99317.53
2024-02-12T20:11:05.187Z,99309.72
2024-02-12T20:13:33.401Z,99314.22
2024-02-12T20:16:00.546Z,99330.00
2024-02-12T20:18:28.212Z,99312.63
2024-02-12T20:20:56.136Z,99324.00
2024-02-12T20:23:23.543Z,99320.59
2024-02-12T20:25:51.704Z,99340.56
2024-02-12T20:28:18.640Z,99331.16
2024-02-12T20:30:48.412Z,99343.41
2024-02-12T20:33:16.978Z,99337.00
2024-02-12T20:35:44.971Z,99335.28
2024-02-12T20:38:12.312Z,99340.22
2024-02-12T20:40:39.639Z,99343.53
2024-02-12T20:43:08.488Z,99345.34
2024-02-12T20:45:35.538Z,99349.22
2024-02-12T20:48:03.748Z,99329.00
2024-02-12T20:50:32.002Z,99341.00
2024-02-12T20:52:59.082Z,99331.41
2024-02-12T20:55:26.217Z,99342.78
2024-02-12T20:57:53.349Z,99351.50
2024-02-12T21:00:22.482Z,99342.97
2024-02-12T21:02:49.739Z,99346.50
2024-02-12T21:05:17.008Z,99359.66
2024-02-12T21:07:43.986Z,99358.94
2024-02-12T21:10:12.582Z,99347.72
2024-02-12T21:12:41.429Z,99354.66
2024-02-12T21:15:11.383Z,99353.81
2024-02-12T21:17:38.664Z,99356.47
2024-02-12T21:20:08.007Z,99352.97
2024-02-12T21:22:35.482Z,99357.47
2024-02-12T21:25:03.024Z,99361.81
2024-02-12T21:27:30.360Z,99371.72
2024-02-12T21:29:59.708Z,99379.56
2024-02-12T21:32:27.941Z,99380.56
2024-02-12T21:34:56.960Z,99371.22
2024-02-12T21:37:24.245Z,99368.59
2024-02-12T21:39:51.606Z,99377.34
2024-02-12T21:42:25.567Z,99372.16
2024-02-12T21:44:54.937Z,99387.81
2024-02-12T21:47:24.031Z,99385.31
2024-02-12T21:49:55.273Z,99382.66
2024-02-12T21:52:23.616Z,99390.66
2024-02-12T21:54:51.892Z,99384.50
2024-02-12T21:57:25.161Z,99382.75
2024-02-12T21:59:53.587Z,99391.47
2024-02-12T22:02:21.627Z,99400.41
2024-02-12T22:04:52.827Z,99390.59
2024-02-12T22:07:21.385Z,99388.88
2024-02-12T22:09:49.495Z,99393.31
2024-02-12T22:12:17.609Z,99390.75
2024-02-12T22:14:45.468Z,99398.72
2024-02-12T22:17:13.758Z,99395.19
2024-02-12T22:19:41.337Z,99396.94
2024-02-12T22:22:08.864Z,99398.75
2024-02-12T22:24:36.241Z,99404.09
2024-02-12T22:27:05.459Z,99405.78
2024-02-12T22:29:32.840Z,99398.06
2024-02-12T22:32:00.150Z,99402.59
2024-02-12T22:34:27.577Z,99421.81
2024-02-12T22:36:57.198Z,99417.34
2024-02-12T22:39:24.777Z,99422.69
2024-02-12T22:41:52.434Z,99432.53
2024-02-12T22:44:20.048Z,99428.91
2024-02-12T22:46:54.611Z,99430.56
2024-02-12T22:49:22.163Z,99428.84
2024-02-12T22:51:50.185Z,99436.78
2024-02-12T22:54:18.955Z,99418.59
2024-02-12T22:56:46.567Z,99426.47
2024-02-12T22:59:14.046Z,99439.53
2024-02-12T23:01:41.714Z,99445.84
2024-02-12T23:04:11.367Z,99441.34
2024-02-12T23:06:38.648Z,99443.19
2024-02-12T23:09:06.592Z,99439.75
2024-02-12T23:11:34.322Z,99440.75
2024-02-12T23:14:01.318Z,99432.84
2024-02-12T23:16:28.451Z,99439.81
2024-02-12T23:18:55.855Z,99437.19
2024-02-12T23:21:23.249Z,99445.13
2024-02-12T23:23:53.700Z,99432.91
2024-02-12T23:26:21.173Z,99444.19
2024-02-12T23:28:48.267Z,99439.81
2024-02-12T23:31:15.983Z,99437.06
2024-02-12T23:33:46.646Z,99445.06
2024-02-12T23:36:14.133Z,99438.97
2024-02-12T23:38:42.201Z,99446.91
2024-02-12T23:41:09.797Z,99452.09
2024-02-12T23:43:38.495Z,99450.47
2024-02-12T23:46:06.272Z,99438.31
2024-02-12T23:48:35.365Z,99439.19
2024-02-12T23:51:04.577Z,99458.47
2024-02-12T23:53:31.944Z,99450.69
2024-02-12T23:55:59.668Z,99461.19
2024-02-12T23:58:26.779Z,99460.47
